createdAt,value
2023-02-17T00:01:44.670Z,1.90
2023-02-17T00:04:14.932Z,1.90
2023-02-17T00:06:43.810Z,1.80
2023-02-17T00:09:12.602Z,1.90
2023-02-17T00:11:41.442Z,1.90
2023-02-17T00:14:13.185Z,1.90
2023-02-17T00:16:42.497Z,1.90
2023-02-17T00:19:25.242Z,1.90
2023-02-17T00:21:57.710Z,1.90
2023-02-17T00:24:28.121Z,1.90
2023-02-17T00:26:57.270Z,1.90
2023-02-17T00:29:26.102Z,1.90
2023-02-17T00:31:55.487Z,1.80
2023-02-17T00:34:25.391Z,1.80
2023-02-17T00:36:55.724Z,1.80
2023-02-17T00:39:24.561Z,1.80
2023-02-17T00:41:53.601Z,1.80
2023-02-17T00:44:24.814Z,1.80
2023-02-17T00:46:56.681Z,1.70
2023-02-17T00:49:27.588Z,1.70
2023-02-17T00:52:01.133Z,1.70
2023-02-17T00:54:30.324Z,1.70
2023-02-17T00:56:59.101Z,1.70
2023-02-17T00:59:27.867Z,1.70
2023-02-17T01:01:56.914Z,1.70
2023-02-17T01:04:25.829Z,1.60
2023-02-17T01:06:54.755Z,1.60
2023-02-17T01:09:26.953Z,1.60
2023-02-17T01:12:14.948Z,1.50
2023-02-17T01:14:43.812Z,1.50
2023-02-17T01:17:12.631Z,1.50
2023-02-17T01:19:41.437Z,1.50
2023-02-17T01:22:12.253Z,1.40
2023-02-17T01:24:42.771Z,1.40
2023-02-17T01:27:11.727Z,1.40
2023-02-17T01:29:40.803Z,1.40
2023-02-17T01:32:09.704Z,1.40
2023-02-17T01:34:39.630Z,1.40
2023-02-17T01:37:08.528Z,1.40
2023-02-17T01:39:38.299Z,1.40
2023-02-17T01:42:15.776Z,1.40
2023-02-17T01:45:26.216Z,1.40
2023-02-17T01:47:59.948Z,1.40
2023-02-17T01:50:34.489Z,1.40
2023-02-17T01:53:05.324Z,1.40
2023-02-17T01:55:36.285Z,1.40
2023-02-17T01:58:10.403Z,1.40
2023-02-17T02:00:40.167Z,1.40
2023-02-17T02:03:12.267Z,1.40
2023-02-17T02:05:42.792Z,1.40
2023-02-17T02:08:13.692Z,1.40
2023-02-17T02:10:42.602Z,1.40
2023-02-17T02:13:13.174Z,1.40
2023-02-17T02:15:48.668Z,1.40
2023-02-17T02:18:36.954Z,1.40
2023-02-17T02:22:02.605Z,1.40
2023-02-17T02:24:48.262Z,1.40
2023-02-17T02:27:52.388Z,1.40
2023-02-17T02:30:52.446Z,1.30
2023-02-17T02:33:35.469Z,1.30
2023-02-17T02:36:12.176Z,1.30
2023-02-17T02:38:46.017Z,1.40
2023-02-17T02:41:20.894Z,1.40
2023-02-17T02:43:50.470Z,1.40
2023-02-17T02:46:19.440Z,1.40
2023-02-17T02:48:51.415Z,1.50
2023-02-17T02:51:32.606Z,1.50
2023-02-17T02:54:32.237Z,1.50
2023-02-17T02:57:21.007Z,1.50
2023-02-17T03:00:05.880Z,1.50
2023-02-17T03:02:44.409Z,1.50
2023-02-17T03:05:19.976Z,1.50
2023-02-17T03:07:55.345Z,1.50
2023-02-17T03:10:24.421Z,1.50
2023-02-17T03:12:53.712Z,1.60
2023-02-17T03:15:27.263Z,1.80
2023-02-17T03:17:59.061Z,1.70
2023-02-17T03:20:32.733Z,1.70
2023-02-17T03:23:01.749Z,1.70
2023-02-17T03:25:30.985Z,1.70
2023-02-17T03:28:00.154Z,1.70
2023-02-17T03:30:29.057Z,1.70
2023-02-17T03:32:57.898Z,1.70
2023-02-17T03:35:26.802Z,1.70
2023-02-17T03:37:57.068Z,1.60
2023-02-17T03:40:25.851Z,1.60
2023-02-17T03:42:54.728Z,1.60
2023-02-17T03:45:23.547Z,1.60
2023-02-17T03:47:52.534Z,1.60
2023-02-17T03:50:21.495Z,1.50
2023-02-17T03:52:50.629Z,1.50
2023-02-17T03:55:20.854Z,1.50
2023-02-17T03:57:49.870Z,1.50
2023-02-17T04:00:18.920Z,1.50
2023-02-17T04:02:47.840Z,1.40
2023-02-17T04:05:16.840Z,1.40
2023-02-17T04:07:51.351Z,1.40
2023-02-17T04:10:22.913Z,1.40
2023-02-17T04:12:52.076Z,1.40
2023-02-17T04:15:21.088Z,1.40
2023-02-17T04:17:49.954Z,1.40
2023-02-17T04:20:19.042Z,1.30
2023-02-17T04:22:47.846Z,1.30
2023-02-17T04:25:16.690Z,1.30
2023-02-17T04:27:47.131Z,1.30
2023-02-17T04:30:17.006Z,1.30
2023-02-17T04:32:46.016Z,1.30
2023-02-17T04:35:14.779Z,1.30
2023-02-17T04:37:43.605Z,1.30
2023-02-17T04:40:13.710Z,1.30
2023-02-17T04:42:42.631Z,1.40
2023-02-17T04:45:14.021Z,1.40
2023-02-17T04:47:43.011Z,1.40
2023-02-17T04:50:12.839Z,1.40
2023-02-17T04:52:41.660Z,1.40
2023-02-17T04:55:10.912Z,1.40
2023-02-17T04:57:39.839Z,1.40
2023-02-17T05:00:10.222Z,1.40
2023-02-17T05:02:40.496Z,1.40
2023-02-17T05:05:10.413Z,1.40
2023-02-17T05:07:39.296Z,1.40
2023-02-17T05:10:08.860Z,1.40
2023-02-17T05:12:37.984Z,1.40
2023-02-17T05:15:08.000Z,1.40
2023-02-17T05:17:37.138Z,1.50
2023-02-17T05:20:09.233Z,1.50
2023-02-17T05:22:38.421Z,1.60
2023-02-17T05:25:07.859Z,1.60
2023-02-17T05:27:36.724Z,1.60
2023-02-17T05:30:06.535Z,1.70
2023-02-17T05:32:35.430Z,1.70
2023-02-17T05:35:04.261Z,1.80
2023-02-17T05:37:34.654Z,1.80
2023-02-17T05:40:03.836Z,1.80
2023-02-17T05:42:32.960Z,1.90
2023-02-17T05:45:01.804Z,2.00
2023-02-17T05:47:31.744Z,2.20
2023-02-17T05:50:19.157Z,2.50
2023-02-17T05:52:52.460Z,2.80
2023-02-17T05:55:22.408Z,3.10
2023-02-17T05:57:51.197Z,3.30
2023-02-17T06:00:20.146Z,3.70
2023-02-17T06:02:49.315Z,4.00
2023-02-17T06:05:18.445Z,4.20
2023-02-17T06:07:47.283Z,4.60
2023-02-17T06:10:17.686Z,4.80
2023-02-17T06:12:46.590Z,5.10
2023-02-17T06:15:15.538Z,5.30
2023-02-17T06:17:44.508Z,5.30
2023-02-17T06:20:14.235Z,5.40
2023-02-17T06:22:43.569Z,5.50
2023-02-17T06:25:12.620Z,5.60
2023-02-17T06:27:44.268Z,5.80
2023-02-17T06:30:14.964Z,5.90
2023-02-17T06:32:43.852Z,6.10
2023-02-17T06:35:12.664Z,6.20
2023-02-17T06:37:41.535Z,6.30
2023-02-17T06:40:11.895Z,6.30
2023-02-17T06:42:42.338Z,6.40
2023-02-17T06:45:11.728Z,6.40
2023-02-17T06:47:40.563Z,6.50
2023-02-17T06:50:11.945Z,6.60
2023-02-17T06:52:41.047Z,6.60
2023-02-17T06:55:10.566Z,6.60
2023-02-17T06:57:39.413Z,6.60
2023-02-17T07:00:10.907Z,6.60
2023-02-17T07:02:40.154Z,6.60
2023-02-17T07:05:09.972Z,6.70
2023-02-17T07:07:38.783Z,6.80
2023-02-17T07:10:08.969Z,7.00
2023-02-17T07:12:38.078Z,7.20
2023-02-17T07:15:12.047Z,7.40
2023-02-17T07:17:41.342Z,7.60
2023-02-17T07:20:11.623Z,7.80
2023-02-17T07:22:40.743Z,8.00
2023-02-17T07:25:09.945Z,8.10
2023-02-17T07:27:39.002Z,8.10
2023-02-17T07:30:10.776Z,8.30
2023-02-17T07:32:39.698Z,8.50
2023-02-17T07:35:08.683Z,8.70
2023-02-17T07:37:37.604Z,9.00
2023-02-17T07:40:07.838Z,9.30
2023-02-17T07:42:36.772Z,9.60
2023-02-17T07:45:07.344Z,9.70
2023-02-17T07:47:37.602Z,9.70
2023-02-17T07:50:07.623Z,9.70
2023-02-17T07:52:36.617Z,9.70
2023-02-17T07:55:05.740Z,9.70
2023-02-17T07:57:34.535Z,9.90
2023-02-17T08:00:03.767Z,10.10
2023-02-17T08:02:42.904Z,10.30
2023-02-17T08:05:11.951Z,10.50
2023-02-17T08:07:40.759Z,10.70
2023-02-17T08:10:29.991Z,10.80
2023-02-17T08:13:16.091Z,11.00
2023-02-17T08:15:45.004Z,11.40
2023-02-17T08:18:15.235Z,11.70
2023-02-17T08:20:44.087Z,12.00
2023-02-17T08:23:13.962Z,12.10
2023-02-17T08:26:02.065Z,12.30
2023-02-17T08:28:31.109Z,12.40
2023-02-17T08:31:00.103Z,12.50
2023-02-17T08:33:30.474Z,12.70
2023-02-17T08:35:59.294Z,13.00
2023-02-17T08:38:28.247Z,13.20
2023-02-17T08:40:57.048Z,13.30
2023-02-17T08:43:25.987Z,13.40
2023-02-17T08:45:55.049Z,13.50
2023-02-17T08:48:23.902Z,13.60
2023-02-17T08:50:54.401Z,13.70
2023-02-17T08:53:23.442Z,13.80
2023-02-17T08:55:52.262Z,14.00
2023-02-17T08:58:21.108Z,14.30
2023-02-17T09:00:50.461Z,14.50
2023-02-17T09:03:19.405Z,14.70
2023-02-17T09:05:49.971Z,15.00
2023-02-17T09:08:20.963Z,15.20
2023-02-17T09:10:50.001Z,15.30
2023-02-17T09:13:19.431Z,15.40
2023-02-17T09:15:49.643Z,15.40
2023-02-17T09:18:18.676Z,15.50
2023-02-17T09:20:47.459Z,15.40
2023-02-17T09:23:16.753Z,15.40
2023-02-17T09:25:47.474Z,15.50
2023-02-17T09:28:16.536Z,15.90
2023-02-17T09:30:45.553Z,16.30
2023-02-17T09:33:14.583Z,16.70
2023-02-17T09:35:44.621Z,17.10
2023-02-17T09:38:13.510Z,17.50
2023-02-17T09:40:48.715Z,17.70
2023-02-17T09:43:20.329Z,18.00
2023-02-17T09:45:53.029Z,18.30
2023-02-17T09:48:27.140Z,18.60
2023-02-17T09:51:01.718Z,18.80
2023-02-17T09:53:38.082Z,19.10
2023-02-17T09:56:15.456Z,19.40
2023-02-17T09:58:49.092Z,19.50
2023-02-17T10:01:23.252Z,19.50
2023-02-17T10:03:57.094Z,19.70
2023-02-17T10:06:30.728Z,19.70
2023-02-17T10:09:05.294Z,19.90
2023-02-17T10:11:37.730Z,20.00
2023-02-17T10:14:12.557Z,20.20
2023-02-17T10:16:48.989Z,20.20
2023-02-17T10:19:23.537Z,20.20
2023-02-17T10:22:03.969Z,20.20
2023-02-17T10:24:32.935Z,20.30
2023-02-17T10:27:29.496Z,20.40
2023-02-17T10:30:13.923Z,20.60
2023-02-17T10:32:52.931Z,20.80
2023-02-17T10:35:30.424Z,20.90
2023-02-17T10:38:07.683Z,21.00
2023-02-17T10:40:36.722Z,21.10
2023-02-17T10:43:10.605Z,21.30
2023-02-17T10:45:43.276Z,21.40
2023-02-17T10:48:16.992Z,21.60
2023-02-17T10:50:54.394Z,21.80
2023-02-17T10:53:36.738Z,22.00
2023-02-17T10:56:14.638Z,22.10
2023-02-17T10:58:55.637Z,22.20
2023-02-17T11:01:24.697Z,22.30
2023-02-17T11:04:03.105Z,22.40
2023-02-17T11:06:33.893Z,22.40
2023-02-17T11:09:07.935Z,22.40
2023-02-17T11:11:39.254Z,22.30
2023-02-17T11:14:20.709Z,22.20
2023-02-17T11:16:53.915Z,22.20
2023-02-17T11:19:25.968Z,22.20
2023-02-17T11:21:56.978Z,22.10
2023-02-17T11:24:26.424Z,22.10
2023-02-17T11:27:01.033Z,22.10
2023-02-17T11:29:32.855Z,22.10
2023-02-17T11:32:04.985Z,22.20
2023-02-17T11:34:35.159Z,22.20
2023-02-17T11:37:07.500Z,22.10
2023-02-17T11:39:41.082Z,22.00
2023-02-17T11:42:23.465Z,21.70
2023-02-17T11:44:59.319Z,21.20
2023-02-17T11:47:41.063Z,20.70
2023-02-17T11:50:41.319Z,20.10
2023-02-17T11:53:28.273Z,19.40
2023-02-17T11:56:12.417Z,18.80
2023-02-17T11:59:15.337Z,18.30
2023-02-17T12:02:07.978Z,17.90
2023-02-17T12:04:42.950Z,17.50
2023-02-17T12:07:35.858Z,17.20
2023-02-17T12:10:12.315Z,17.10
2023-02-17T12:12:57.266Z,17.10
2023-02-17T12:16:02.099Z,17.20
2023-02-17T12:18:50.193Z,17.40
2023-02-17T12:21:31.504Z,17.60
2023-02-17T12:24:23.063Z,17.80
2023-02-17T12:27:02.231Z,18.10
2023-02-17T12:29:55.966Z,18.30
2023-02-17T12:32:41.962Z,18.40
2023-02-17T12:35:20.773Z,18.50
2023-02-17T12:37:57.692Z,18.60
2023-02-17T12:40:36.226Z,18.60
2023-02-17T12:43:25.730Z,18.60
2023-02-17T12:45:58.487Z,18.60
2023-02-17T12:48:35.317Z,18.60
2023-02-17T12:51:10.784Z,18.70
2023-02-17T12:53:44.725Z,18.70
2023-02-17T12:56:39.854Z,18.70
2023-02-17T12:59:15.919Z,18.50
2023-02-17T13:01:54.314Z,18.20
2023-02-17T13:04:26.822Z,17.90
2023-02-17T13:07:06.661Z,17.70
2023-02-17T13:09:38.425Z,17.50
2023-02-17T13:12:33.849Z,17.50
2023-02-17T13:15:05.420Z,17.50
2023-02-17T13:17:38.445Z,17.60
2023-02-17T13:20:31.735Z,17.80
2023-02-17T13:23:12.036Z,18.00
2023-02-17T13:25:41.707Z,18.10
2023-02-17T13:28:36.074Z,18.30
2023-02-17T13:31:20.236Z,18.40
2023-02-17T13:33:56.187Z,18.40
2023-02-17T13:36:39.192Z,18.30
2023-02-17T13:39:34.946Z,18.10
2023-02-17T13:42:04.202Z,17.90
2023-02-17T13:44:35.609Z,17.70
2023-02-17T13:47:14.214Z,17.60
2023-02-17T13:49:43.308Z,17.50
2023-02-17T13:52:18.551Z,17.40
2023-02-17T13:54:57.568Z,17.30
2023-02-17T13:57:31.567Z,17.30
2023-02-17T14:00:09.354Z,17.20
2023-02-17T14:02:47.323Z,17.10
2023-02-17T14:05:21.640Z,17.00
2023-02-17T14:07:52.945Z,16.90
2023-02-17T14:10:26.464Z,16.80
2023-02-17T14:12:56.360Z,16.80
2023-02-17T14:15:29.652Z,16.70
2023-02-17T14:17:58.804Z,16.60
2023-02-17T14:20:30.651Z,16.50
2023-02-17T14:23:09.035Z,16.40
2023-02-17T14:25:45.119Z,16.30
2023-02-17T14:28:21.778Z,16.30
2023-02-17T14:31:14.476Z,16.20
2023-02-17T14:33:57.644Z,16.20
2023-02-17T14:36:35.519Z,16.20
2023-02-17T14:39:08.183Z,16.10
2023-02-17T14:41:38.935Z,16.10
2023-02-17T14:44:10.100Z,16.00
2023-02-17T14:46:42.528Z,15.90
2023-02-17T14:49:11.550Z,15.80
2023-02-17T14:51:41.879Z,15.60
2023-02-17T14:54:16.193Z,15.50
2023-02-17T14:56:52.949Z,15.30
2023-02-17T14:59:21.876Z,15.20
2023-02-17T15:01:50.707Z,15.00
2023-02-17T15:04:19.631Z,14.90
2023-02-17T15:06:50.923Z,14.80
2023-02-17T15:09:22.646Z,14.60
2023-02-17T15:11:54.112Z,14.50
2023-02-17T15:14:23.387Z,14.40
2023-02-17T15:16:56.750Z,14.30
2023-02-17T15:19:29.930Z,14.10
2023-02-17T15:22:01.575Z,14.10
2023-02-17T15:24:33.605Z,13.90
2023-02-17T15:27:05.492Z,13.90
2023-02-17T15:29:35.938Z,13.80
2023-02-17T15:32:12.319Z,13.70
2023-02-17T15:34:47.001Z,13.60
2023-02-17T15:37:16.228Z,13.50
2023-02-17T15:39:45.066Z,13.30
2023-02-17T15:42:16.739Z,13.20
2023-02-17T15:44:49.439Z,13.10
2023-02-17T15:47:20.764Z,12.90
2023-02-17T15:49:49.997Z,12.80
2023-02-17T15:52:18.888Z,12.70
2023-02-17T15:54:48.556Z,12.60
2023-02-17T15:57:41.249Z,12.40
2023-02-17T16:00:20.043Z,12.30
2023-02-17T16:02:49.408Z,12.10
2023-02-17T16:05:23.502Z,12.00
2023-02-17T16:07:53.344Z,11.80
2023-02-17T16:10:24.664Z,11.70
2023-02-17T16:12:58.444Z,11.60
2023-02-17T16:15:46.255Z,11.40
2023-02-17T16:18:22.627Z,11.30
2023-02-17T16:20:53.779Z,11.10
2023-02-17T16:23:22.884Z,11.00
2023-02-17T16:25:52.281Z,10.90
2023-02-17T16:28:24.374Z,10.70
2023-02-17T16:30:53.727Z,10.60
2023-02-17T16:33:22.632Z,10.50
2023-02-17T16:35:52.826Z,10.40
2023-02-17T16:38:39.992Z,10.30
2023-02-17T16:41:09.518Z,10.30
2023-02-17T16:43:40.053Z,10.20
2023-02-17T16:46:17.895Z,10.10
2023-02-17T16:48:46.900Z,10.10
2023-02-17T16:51:16.218Z,10.10
2023-02-17T16:53:45.077Z,10.00
2023-02-17T16:56:20.183Z,10.00
2023-02-17T16:58:50.721Z,10.00
2023-02-17T17:01:19.658Z,10.10
2023-02-17T17:03:48.515Z,10.10
2023-02-17T17:06:22.125Z,10.10
2023-02-17T17:08:51.397Z,10.00
2023-02-17T17:11:22.268Z,10.00
2023-02-17T17:13:53.544Z,9.90
2023-02-17T17:16:26.183Z,9.90
2023-02-17T17:18:55.710Z,9.80
2023-02-17T17:21:24.554Z,9.70
2023-02-17T17:23:53.471Z,9.70
2023-02-17T17:26:27.603Z,9.60
2023-02-17T17:28:58.252Z,9.60
2023-02-17T17:31:28.646Z,9.60
2023-02-17T17:33:57.820Z,9.60
2023-02-17T17:36:32.064Z,9.50
2023-02-17T17:39:03.531Z,9.50
2023-02-17T17:41:33.504Z,9.40
2023-02-17T17:44:04.474Z,9.30
2023-02-17T17:46:35.822Z,9.20
2023-02-17T17:49:06.648Z,9.10
2023-02-17T17:51:35.874Z,9.00
2023-02-17T17:54:06.653Z,8.90
2023-02-17T17:56:39.345Z,8.80
2023-02-17T17:59:10.222Z,8.70
2023-02-17T18:01:40.651Z,8.60
2023-02-17T18:04:10.793Z,8.50
2023-02-17T18:06:43.474Z,8.40
2023-02-17T18:09:30.588Z,8.40
2023-02-17T18:12:04.358Z,8.30
2023-02-17T18:14:39.256Z,8.30
2023-02-17T18:17:11.225Z,8.20
2023-02-17T18:19:41.347Z,8.20
2023-02-17T18:22:10.928Z,8.10
2023-02-17T18:24:43.145Z,8.10
2023-02-17T18:27:13.729Z,8.00
2023-02-17T18:29:44.675Z,8.00
2023-02-17T18:32:14.219Z,7.90
2023-02-17T18:34:43.239Z,7.90
2023-02-17T18:37:12.682Z,7.80
2023-02-17T18:39:42.336Z,7.80
2023-02-17T18:42:12.863Z,7.80
2023-02-17T18:44:43.309Z,7.80
2023-02-17T18:47:13.995Z,7.80
2023-02-17T18:49:44.590Z,7.80
2023-02-17T18:52:15.551Z,7.70
2023-02-17T18:54:45.817Z,7.70
2023-02-17T18:57:15.614Z,7.60
2023-02-17T18:59:46.185Z,7.60
2023-02-17T19:02:18.241Z,7.50
2023-02-17T19:04:47.369Z,7.50
2023-02-17T19:07:16.412Z,7.40
2023-02-17T19:09:45.249Z,7.40
2023-02-17T19:12:14.614Z,7.40
2023-02-17T19:14:44.336Z,7.40
2023-02-17T19:17:14.082Z,7.50
2023-02-17T19:19:46.114Z,7.30
2023-02-17T19:22:15.117Z,7.20
2023-02-17T19:24:44.703Z,7.20
2023-02-17T19:27:14.325Z,7.20
2023-02-17T19:29:43.272Z,7.10
2023-02-17T19:32:12.392Z,7.00
2023-02-17T19:34:43.956Z,7.00
2023-02-17T19:37:13.287Z,7.00
2023-02-17T19:39:42.958Z,6.90
2023-02-17T19:42:16.067Z,6.90
2023-02-17T19:44:45.630Z,6.90
2023-02-17T19:47:14.783Z,6.80
2023-02-17T19:49:45.399Z,6.80
2023-02-17T19:52:15.645Z,6.70
2023-02-17T19:54:45.516Z,6.70
2023-02-17T19:57:17.993Z,6.60
2023-02-17T19:59:47.580Z,6.50
2023-02-17T20:02:19.032Z,6.50
2023-02-17T20:05:08.782Z,6.40
2023-02-17T20:07:37.752Z,6.30
2023-02-17T20:10:10.922Z,6.20
2023-02-17T20:12:42.889Z,6.20
2023-02-17T20:15:12.420Z,6.10
2023-02-17T20:17:41.328Z,6.10
2023-02-17T20:20:15.127Z,6.00
2023-02-17T20:22:44.830Z,5.90
2023-02-17T20:25:13.865Z,5.90
2023-02-17T20:27:42.701Z,5.80
2023-02-17T20:30:12.694Z,5.70
2023-02-17T20:32:42.466Z,5.70
2023-02-17T20:35:16.215Z,5.60
2023-02-17T20:37:45.426Z,5.60
2023-02-17T20:40:15.012Z,5.50
2023-02-17T20:42:44.133Z,5.50
2023-02-17T20:45:13.668Z,5.50
2023-02-17T20:47:42.548Z,5.40
2023-02-17T20:50:18.665Z,5.40
2023-02-17T20:52:47.824Z,5.40
2023-02-17T20:55:18.124Z,5.30
2023-02-17T20:57:52.721Z,5.30
2023-02-17T21:00:24.822Z,5.20
2023-02-17T21:02:54.174Z,5.20
2023-02-17T21:05:27.987Z,5.10
2023-02-17T21:08:00.886Z,5.10
2023-02-17T21:10:34.875Z,5.00
2023-02-17T21:13:06.354Z,5.00
2023-02-17T21:15:36.518Z,4.90
2023-02-17T21:18:06.009Z,4.90
2023-02-17T21:20:36.499Z,4.80
2023-02-17T21:23:07.082Z,4.80
2023-02-17T21:25:37.124Z,4.80
2023-02-17T21:28:07.637Z,4.70
2023-02-17T21:30:36.876Z,4.70
2023-02-17T21:33:07.186Z,4.70
2023-02-17T21:35:39.979Z,4.60
2023-02-17T21:38:10.460Z,4.60
2023-02-17T21:40:39.977Z,4.60
2023-02-17T21:43:40.332Z,4.60
2023-02-17T21:46:11.150Z,4.60
2023-02-17T21:48:44.357Z,4.60
2023-02-17T21:51:16.365Z,4.50
2023-02-17T21:53:46.990Z,4.50
2023-02-17T21:56:16.925Z,4.50
2023-02-17T21:58:48.822Z,4.50
2023-02-17T22:01:19.300Z,4.40
2023-02-17T22:03:48.242Z,4.40
2023-02-17T22:06:20.963Z,4.40
2023-02-17T22:08:50.447Z,4.30
2023-02-17T22:11:20.627Z,4.30
2023-02-17T22:13:49.894Z,4.20
2023-02-17T22:16:19.415Z,4.20
2023-02-17T22:18:48.224Z,4.20
2023-02-17T22:21:19.843Z,4.10
2023-02-17T22:23:49.219Z,4.10
2023-02-17T22:26:19.998Z,4.10
2023-02-17T22:28:49.083Z,4.10
2023-02-17T22:31:20.555Z,4.10
2023-02-17T22:34:10.091Z,4.10
2023-02-17T22:36:40.707Z,4.10
2023-02-17T22:39:10.535Z,4.00
2023-02-17T22:41:41.309Z,4.00
2023-02-17T22:44:10.618Z,4.00
2023-02-17T22:46:39.715Z,4.00
2023-02-17T22:49:08.790Z,4.00
2023-02-17T22:51:41.667Z,4.00
2023-02-17T22:54:11.118Z,4.00
2023-02-17T22:56:42.906Z,3.90
2023-02-17T22:59:11.837Z,3.90
2023-02-17T23:01:41.051Z,3.90
2023-02-17T23:04:14.071Z,3.90
2023-02-17T23:06:45.905Z,3.80
2023-02-17T23:09:33.170Z,3.80
2023-02-17T23:12:02.099Z,3.70
2023-02-17T23:14:34.681Z,3.70
2023-02-17T23:17:06.244Z,3.60
2023-02-17T23:19:35.914Z,3.60
2023-02-17T23:22:08.452Z,3.60
2023-02-17T23:24:37.276Z,3.50
2023-02-17T23:27:06.856Z,3.50
2023-02-17T23:29:38.138Z,3.50
2023-02-17T23:32:07.913Z,3.40
2023-02-17T23:34:37.099Z,3.40
2023-02-17T23:37:07.566Z,3.40
2023-02-17T23:39:39.120Z,3.40
2023-02-17T23:42:08.284Z,3.40
2023-02-17T23:44:37.759Z,3.40
2023-02-17T23:47:08.524Z,3.30
2023-02-17T23:49:38.191Z,3.30
2023-02-17T23:52:08.732Z,3.30
2023-02-17T23:54:39.600Z,3.30
2023-02-17T23:57:10.387Z,3.20
2023-02-17T23:59:39.997Z,3.20
